sensor_id;sensor_type;location;lat;lon;timestamp;temperature;humidity
12268;DHT22;6196;48.398;11.736;2023-02-07T00:01:24;-3.20;99.90
12268;DHT22;6196;48.398;11.736;2023-02-07T00:03:51;-3.20;99.90
12268;DHT22;6196;48.398;11.736;2023-02-07T00:06:23;-3.30;99.90
12268;DHT22;6196;48.398;11.736;2023-02-07T00:08:54;-3.30;99.90
12268;DHT22;6196;48.398;11.736;2023-02-07T00:11:22;-3.40;99.90
12268;DHT22;6196;48.398;11.736;2023-02-07T00:13:52;-3.40;99.90
12268;DHT22;6196;48.398;11.736;2023-02-07T00:16:20;-3.50;99.90
12268;DHT22;6196;48.398;11.736;2023-02-07T00:18:48;-3.50;99.90
12268;DHT22;6196;48.398;11.736;2023-02-07T00:21:17;-3.40;99.90
12268;DHT22;6196;48.398;11.736;2023-02-07T00:23:46;-3.50;99.90
12268;DHT22;6196;48.398;11.736;2023-02-07T00:26:15;-3.50;99.90
12268;DHT22;6196;48.398;11.736;2023-02-07T00:28:43;-3.50;99.90
12268;DHT22;6196;48.398;11.736;2023-02-07T00:31:12;-3.50;99.90
12268;DHT22;6196;48.398;11.736;2023-02-07T00:33:41;-3.60;99.90
12268;DHT22;6196;48.398;11.736;2023-02-07T00:36:12;-3.60;99.90
12268;DHT22;6196;48.398;11.736;2023-02-07T00:38:42;-3.60;99.90
12268;DHT22;6196;48.398;11.736;2023-02-07T00:41:10;-3.60;99.90
12268;DHT22;6196;48.398;11.736;2023-02-07T00:43:41;-3.70;99.90
12268;DHT22;6196;48.398;11.736;2023-02-07T00:46:08;-3.70;99.90
12268;DHT22;6196;48.398;11.736;2023-02-07T00:48:36;-3.70;99.90
12268;DHT22;6196;48.398;11.736;2023-02-07T00:51:06;-3.70;99.90
12268;DHT22;6196;48.398;11.736;2023-02-07T00:53:33;-3.70;99.90
12268;DHT22;6196;48.398;11.736;2023-02-07T00:56:00;-3.70;99.90
12268;DHT22;6196;48.398;11.736;2023-02-07T00:58:27;-3.80;99.90
12268;DHT22;6196;48.398;11.736;2023-02-07T01:00:54;-3.80;99.90
12268;DHT22;6196;48.398;11.736;2023-02-07T01:03:21;-3.80;99.90
12268;DHT22;6196;48.398;11.736;2023-02-07T01:05:48;-3.80;99.90
12268;DHT22;6196;48.398;11.736;2023-02-07T01:08:15;-3.80;99.90
12268;DHT22;6196;48.398;11.736;2023-02-07T01:10:44;-3.80;99.90
12268;DHT22;6196;48.398;11.736;2023-02-07T01:13:12;-3.90;99.90
12268;DHT22;6196;48.398;11.736;2023-02-07T01:15:43;-3.90;99.90
12268;DHT22;6196;48.398;11.736;2023-02-07T01:18:11;-3.90;99.90
12268;DHT22;6196;48.398;11.736;2023-02-07T01:20:39;-3.90;99.90
12268;DHT22;6196;48.398;11.736;2023-02-07T01:23:06;-3.90;99.90
12268;DHT22;6196;48.398;11.736;2023-02-07T01:25:33;-3.90;99.90
12268;DHT22;6196;48.398;11.736;2023-02-07T01:28:00;-3.90;99.90
12268;DHT22;6196;48.398;11.736;2023-02-07T01:30:27;-3.80;99.90
12268;DHT22;6196;48.398;11.736;2023-02-07T01:32:54;-3.90;99.90
12268;DHT22;6196;48.398;11.736;2023-02-07T01:35:21;-3.90;99.90
12268;DHT22;6196;48.398;11.736;2023-02-07T01:37:49;-3.90;99.90
12268;DHT22;6196;48.398;11.736;2023-02-07T01:40:16;-3.90;99.90
12268;DHT22;6196;48.398;11.736;2023-02-07T01:42:43;-4.00;99.90
12268;DHT22;6196;48.398;11.736;2023-02-07T01:45:31;-4.00;99.90
12268;DHT22;6196;48.398;11.736;2023-02-07T01:48:05;-3.90;99.90
12268;DHT22;6196;48.398;11.736;2023-02-07T01:50:34;-4.00;99.90
12268;DHT22;6196;48.398;11.736;2023-02-07T01:53:04;-4.10;99.90
12268;DHT22;6196;48.398;11.736;2023-02-07T01:55:35;-4.00;99.90
12268;DHT22;6196;48.398;11.736;2023-02-07T01:58:04;-4.10;99.90
12268;DHT22;6196;48.398;11.736;2023-02-07T02:00:32;-4.10;99.90
12268;DHT22;6196;48.398;11.736;2023-02-07T02:03:00;-4.10;99.90
12268;DHT22;6196;48.398;11.736;2023-02-07T02:05:29;-4.10;99.90
12268;DHT22;6196;48.398;11.736;2023-02-07T02:07:56;-4.10;99.90
12268;DHT22;6196;48.398;11.736;2023-02-07T02:13:19;-4.20;99.90
12268;DHT22;6196;48.398;11.736;2023-02-07T02:16:24;-4.20;99.90
12268;DHT22;6196;48.398;11.736;2023-02-07T02:28:08;-4.20;99.90
12268;DHT22;6196;48.398;11.736;2023-02-07T02:30:51;-4.20;99.90
12268;DHT22;6196;48.398;11.736;2023-02-07T02:34:02;-4.30;99.90
12268;DHT22;6196;48.398;11.736;2023-02-07T02:40:06;-4.30;99.90
12268;DHT22;6196;48.398;11.736;2023-02-07T02:42:43;-4.30;99.90
12268;DHT22;6196;48.398;11.736;2023-02-07T02:45:24;-4.30;99.90
12268;DHT22;6196;48.398;11.736;2023-02-07T02:47:55;-4.30;99.90
12268;DHT22;6196;48.398;11.736;2023-02-07T02:50:26;-4.30;99.90
12268;DHT22;6196;48.398;11.736;2023-02-07T02:52:54;-4.30;99.90
12268;DHT22;6196;48.398;11.736;2023-02-07T02:55:35;-4.30;99.90
12268;DHT22;6196;48.398;11.736;2023-02-07T03:01:58;-4.40;99.90
12268;DHT22;6196;48.398;11.736;2023-02-07T03:13:12;-4.30;99.90
12268;DHT22;6196;48.398;11.736;2023-02-07T03:21:46;-4.50;99.90
12268;DHT22;6196;48.398;11.736;2023-02-07T03:24:21;-4.60;99.90
12268;DHT22;6196;48.398;11.736;2023-02-07T03:26:56;-4.50;99.90
12268;DHT22;6196;48.398;11.736;2023-02-07T03:29:25;-4.60;99.90
12268;DHT22;6196;48.398;11.736;2023-02-07T03:31:57;-4.70;99.90
12268;DHT22;6196;48.398;11.736;2023-02-07T03:34:44;-4.70;99.90
12268;DHT22;6196;48.398;11.736;2023-02-07T03:37:47;-4.70;99.90
12268;DHT22;6196;48.398;11.736;2023-02-07T03:40:16;-4.70;99.90
12268;DHT22;6196;48.398;11.736;2023-02-07T03:43:01;-4.70;99.90
12268;DHT22;6196;48.398;11.736;2023-02-07T03:45:30;-4.80;99.90
12268;DHT22;6196;48.398;11.736;2023-02-07T03:47:57;-4.80;99.90
12268;DHT22;6196;48.398;11.736;2023-02-07T03:50:24;-4.80;99.90
12268;DHT22;6196;48.398;11.736;2023-02-07T03:52:51;-4.80;99.90
12268;DHT22;6196;48.398;11.736;2023-02-07T03:55:18;-4.80;99.90
12268;DHT22;6196;48.398;11.736;2023-02-07T03:57:44;-4.80;99.90
12268;DHT22;6196;48.398;11.736;2023-02-07T04:00:12;-4.70;99.90
12268;DHT22;6196;48.398;11.736;2023-02-07T04:02:40;-4.70;99.90
12268;DHT22;6196;48.398;11.736;2023-02-07T04:05:07;-4.60;99.90
12268;DHT22;6196;48.398;11.736;2023-02-07T04:07:34;-4.50;99.90
12268;DHT22;6196;48.398;11.736;2023-02-07T04:10:02;-4.60;99.90
12268;DHT22;6196;48.398;11.736;2023-02-07T04:12:30;-4.60;99.90
12268;DHT22;6196;48.398;11.736;2023-02-07T04:15:00;-4.60;99.90
12268;DHT22;6196;48.398;11.736;2023-02-07T04:17:28;-4.60;99.90
12268;DHT22;6196;48.398;11.736;2023-02-07T04:19:57;-4.40;99.90
12268;DHT22;6196;48.398;11.736;2023-02-07T04:22:24;-4.50;99.90
12268;DHT22;6196;48.398;11.736;2023-02-07T04:24:51;-4.60;99.90
12268;DHT22;6196;48.398;11.736;2023-02-07T04:27:18;-4.70;99.90
12268;DHT22;6196;48.398;11.736;2023-02-07T04:29:44;-4.70;99.90
12268;DHT22;6196;48.398;11.736;2023-02-07T04:32:11;-4.80;99.90
12268;DHT22;6196;48.398;11.736;2023-02-07T04:34:38;-4.80;99.90
12268;DHT22;6196;48.398;11.736;2023-02-07T04:37:05;-4.80;99.90
12268;DHT22;6196;48.398;11.736;2023-02-07T04:39:32;-4.80;99.90
12268;DHT22;6196;48.398;11.736;2023-02-07T04:41:59;-4.80;99.90
12268;DHT22;6196;48.398;11.736;2023-02-07T04:44:26;-4.80;99.90
12268;DHT22;6196;48.398;11.736;2023-02-07T04:46:53;-4.80;99.90
12268;DHT22;6196;48.398;11.736;2023-02-07T04:49:20;-4.80;99.90
12268;DHT22;6196;48.398;11.736;2023-02-07T04:51:47;-4.80;99.90
12268;DHT22;6196;48.398;11.736;2023-02-07T04:54:14;-4.80;99.90
12268;DHT22;6196;48.398;11.736;2023-02-07T04:56:40;-4.90;99.90
12268;DHT22;6196;48.398;11.736;2023-02-07T04:59:07;-4.80;99.90
12268;DHT22;6196;48.398;11.736;2023-02-07T05:01:34;-4.90;99.90
12268;DHT22;6196;48.398;11.736;2023-02-07T05:04:01;-4.80;99.90
12268;DHT22;6196;48.398;11.736;2023-02-07T05:06:29;-4.80;99.90
12268;DHT22;6196;48.398;11.736;2023-02-07T05:08:56;-4.90;99.90
12268;DHT22;6196;48.398;11.736;2023-02-07T05:11:23;-4.90;99.90
12268;DHT22;6196;48.398;11.736;2023-02-07T05:13:50;-4.90;99.90
12268;DHT22;6196;48.398;11.736;2023-02-07T05:16:16;-4.80;99.90
12268;DHT22;6196;48.398;11.736;2023-02-07T05:18:43;-4.90;99.90
12268;DHT22;6196;48.398;11.736;2023-02-07T05:21:10;-5.00;99.90
12268;DHT22;6196;48.398;11.736;2023-02-07T05:23:38;-5.00;99.90
12268;DHT22;6196;48.398;11.736;2023-02-07T05:26:05;-5.00;99.90
12268;DHT22;6196;48.398;11.736;2023-02-07T05:28:32;-5.10;99.90
12268;DHT22;6196;48.398;11.736;2023-02-07T05:30:59;-5.00;99.90
12268;DHT22;6196;48.398;11.736;2023-02-07T05:33:26;-5.00;99.90
12268;DHT22;6196;48.398;11.736;2023-02-07T05:35:53;-5.10;99.90
12268;DHT22;6196;48.398;11.736;2023-02-07T05:38:20;-5.10;99.90
12268;DHT22;6196;48.398;11.736;2023-02-07T05:40:47;-5.20;99.90
12268;DHT22;6196;48.398;11.736;2023-02-07T05:43:15;-5.20;99.90
12268;DHT22;6196;48.398;11.736;2023-02-07T05:45:42;-5.20;99.90
12268;DHT22;6196;48.398;11.736;2023-02-07T05:48:11;-5.30;99.90
12268;DHT22;6196;48.398;11.736;2023-02-07T05:50:39;-5.30;99.90
12268;DHT22;6196;48.398;11.736;2023-02-07T05:53:06;-5.30;99.90
12268;DHT22;6196;48.398;11.736;2023-02-07T05:55:34;-5.30;99.90
12268;DHT22;6196;48.398;11.736;2023-02-07T05:58:01;-5.30;99.90
12268;DHT22;6196;48.398;11.736;2023-02-07T06:00:28;-5.40;99.90
12268;DHT22;6196;48.398;11.736;2023-02-07T06:02:55;-5.40;99.90
12268;DHT22;6196;48.398;11.736;2023-02-07T06:05:22;-5.40;99.90
12268;DHT22;6196;48.398;11.736;2023-02-07T06:07:50;-5.40;99.90
12268;DHT22;6196;48.398;11.736;2023-02-07T06:10:17;-5.40;99.90
12268;DHT22;6196;48.398;11.736;2023-02-07T06:12:45;-5.40;99.90
12268;DHT22;6196;48.398;11.736;2023-02-07T06:15:12;-5.50;99.90
12268;DHT22;6196;48.398;11.736;2023-02-07T06:17:39;-5.50;99.90
12268;DHT22;6196;48.398;11.736;2023-02-07T06:20:06;-5.50;99.90
12268;DHT22;6196;48.398;11.736;2023-02-07T06:22:34;-5.50;99.90
12268;DHT22;6196;48.398;11.736;2023-02-07T06:25:01;-5.50;99.90
12268;DHT22;6196;48.398;11.736;2023-02-07T06:27:28;-5.50;99.90
12268;DHT22;6196;48.398;11.736;2023-02-07T06:29:55;-5.50;99.90
12268;DHT22;6196;48.398;11.736;2023-02-07T06:32:22;-5.50;99.90
12268;DHT22;6196;48.398;11.736;2023-02-07T06:34:48;-5.40;99.90
12268;DHT22;6196;48.398;11.736;2023-02-07T06:37:15;-5.40;99.90
12268;DHT22;6196;48.398;11.736;2023-02-07T06:39:42;-5.40;99.90
12268;DHT22;6196;48.398;11.736;2023-02-07T06:42:09;-5.40;99.90
12268;DHT22;6196;48.398;11.736;2023-02-07T06:44:36;-5.40;99.90
12268;DHT22;6196;48.398;11.736;2023-02-07T06:47:03;-5.40;99.90
12268;DHT22;6196;48.398;11.736;2023-02-07T06:49:29;-5.40;99.90
12268;DHT22;6196;48.398;11.736;2023-02-07T06:51:56;-5.30;99.90
12268;DHT22;6196;48.398;11.736;2023-02-07T06:54:23;-5.10;99.90
12268;DHT22;6196;48.398;11.736;2023-02-07T06:56:50;-5.00;99.90
12268;DHT22;6196;48.398;11.736;2023-02-07T06:59:17;-4.90;99.90
12268;DHT22;6196;48.398;11.736;2023-02-07T07:01:44;-4.70;99.90
12268;DHT22;6196;48.398;11.736;2023-02-07T07:04:14;-4.50;99.90
12268;DHT22;6196;48.398;11.736;2023-02-07T07:06:41;-4.40;99.90
12268;DHT22;6196;48.398;11.736;2023-02-07T07:09:08;-4.20;99.90
12268;DHT22;6196;48.398;11.736;2023-02-07T07:11:35;-4.00;99.90
12268;DHT22;6196;48.398;11.736;2023-02-07T07:14:09;-3.80;99.90
12268;DHT22;6196;48.398;11.736;2023-02-07T07:16:37;-3.60;99.90
12268;DHT22;6196;48.398;11.736;2023-02-07T07:19:04;-3.60;99.90
12268;DHT22;6196;48.398;11.736;2023-02-07T07:21:31;-3.40;99.90
12268;DHT22;6196;48.398;11.736;2023-02-07T07:23:58;-3.30;99.90
12268;DHT22;6196;48.398;11.736;2023-02-07T07:26:25;-3.10;99.90
12268;DHT22;6196;48.398;11.736;2023-02-07T07:29:05;-3.00;99.90
12268;DHT22;6196;48.398;11.736;2023-02-07T07:31:33;-2.70;99.90
12268;DHT22;6196;48.398;11.736;2023-02-07T07:34:00;-2.60;99.90
12268;DHT22;6196;48.398;11.736;2023-02-07T07:36:27;-2.40;99.90
12268;DHT22;6196;48.398;11.736;2023-02-07T07:38:54;-2.30;99.90
12268;DHT22;6196;48.398;11.736;2023-02-07T07:41:21;-2.20;99.90
12268;DHT22;6196;48.398;11.736;2023-02-07T07:43:49;-2.00;99.90
12268;DHT22;6196;48.398;11.736;2023-02-07T07:46:15;-1.70;99.90
12268;DHT22;6196;48.398;11.736;2023-02-07T07:48:42;-1.50;99.90
12268;DHT22;6196;48.398;11.736;2023-02-07T07:51:09;-1.40;99.90
12268;DHT22;6196;48.398;11.736;2023-02-07T07:53:36;-1.00;99.90
12268;DHT22;6196;48.398;11.736;2023-02-07T07:56:03;-0.80;99.90
12268;DHT22;6196;48.398;11.736;2023-02-07T07:58:30;-0.60;99.90
12268;DHT22;6196;48.398;11.736;2023-02-07T08:00:57;-0.40;99.90
12268;DHT22;6196;48.398;11.736;2023-02-07T08:03:24;-0.40;99.90
12268;DHT22;6196;48.398;11.736;2023-02-07T08:05:51;-0.10;99.90
12268;DHT22;6196;48.398;11.736;2023-02-07T08:08:18;-0.10;99.90
12268;DHT22;6196;48.398;11.736;2023-02-07T08:10:46;0.20;99.90
12268;DHT22;6196;48.398;11.736;2023-02-07T08:13:13;0.00;99.90
12268;DHT22;6196;48.398;11.736;2023-02-07T08:15:42;0.10;99.90
12268;DHT22;6196;48.398;11.736;2023-02-07T08:18:09;0.40;99.90
12268;DHT22;6196;48.398;11.736;2023-02-07T08:20:36;0.90;99.90
12268;DHT22;6196;48.398;11.736;2023-02-07T08:23:03;1.20;99.90
12268;DHT22;6196;48.398;11.736;2023-02-07T08:25:30;1.50;99.90
12268;DHT22;6196;48.398;11.736;2023-02-07T08:27:57;1.80;99.90
12268;DHT22;6196;48.398;11.736;2023-02-07T08:30:24;1.70;99.90
12268;DHT22;6196;48.398;11.736;2023-02-07T08:32:52;1.80;99.90
12268;DHT22;6196;48.398;11.736;2023-02-07T08:35:20;1.60;99.90
12268;DHT22;6196;48.398;11.736;2023-02-07T08:37:47;1.50;99.90
12268;DHT22;6196;48.398;11.736;2023-02-07T08:40:15;1.60;99.90
12268;DHT22;6196;48.398;11.736;2023-02-07T08:42:43;1.50;99.90
12268;DHT22;6196;48.398;11.736;2023-02-07T08:45:10;1.50;99.90
12268;DHT22;6196;48.398;11.736;2023-02-07T08:47:37;2.00;99.90
12268;DHT22;6196;48.398;11.736;2023-02-07T08:50:05;2.60;99.90
12268;DHT22;6196;48.398;11.736;2023-02-07T08:52:33;3.20;99.90
12268;DHT22;6196;48.398;11.736;2023-02-07T08:55:00;3.70;99.90
12268;DHT22;6196;48.398;11.736;2023-02-07T08:57:26;4.30;99.90
12268;DHT22;6196;48.398;11.736;2023-02-07T08:59:53;4.70;99.90
12268;DHT22;6196;48.398;11.736;2023-02-07T09:02:20;4.70;99.90
12268;DHT22;6196;48.398;11.736;2023-02-07T09:04:47;4.30;99.90
12268;DHT22;6196;48.398;11.736;2023-02-07T09:07:14;4.30;99.90
12268;DHT22;6196;48.398;11.736;2023-02-07T09:09:41;4.00;99.90
12268;DHT22;6196;48.398;11.736;2023-02-07T09:12:09;4.00;99.90
12268;DHT22;6196;48.398;11.736;2023-02-07T09:14:37;3.70;99.90
12268;DHT22;6196;48.398;11.736;2023-02-07T09:17:05;3.80;99.90
12268;DHT22;6196;48.398;11.736;2023-02-07T09:19:34;4.00;99.90
12268;DHT22;6196;48.398;11.736;2023-02-07T09:22:03;4.30;99.90
12268;DHT22;6196;48.398;11.736;2023-02-07T09:24:30;4.90;99.90
12268;DHT22;6196;48.398;11.736;2023-02-07T09:26:57;5.50;99.90
12268;DHT22;6196;48.398;11.736;2023-02-07T09:29:24;5.80;99.90
12268;DHT22;6196;48.398;11.736;2023-02-07T09:31:51;5.90;99.90
12268;DHT22;6196;48.398;11.736;2023-02-07T09:34:19;6.70;99.90
12268;DHT22;6196;48.398;11.736;2023-02-07T09:36:45;7.20;99.90
12268;DHT22;6196;48.398;11.736;2023-02-07T09:39:12;7.70;99.90
12268;DHT22;6196;48.398;11.736;2023-02-07T09:45:07;8.40;99.90
12268;DHT22;6196;48.398;11.736;2023-02-07T09:47:37;8.30;99.90
12268;DHT22;6196;48.398;11.736;2023-02-07T09:50:13;7.90;99.90
12268;DHT22;6196;48.398;11.736;2023-02-07T09:53:13;7.80;99.90
12268;DHT22;6196;48.398;11.736;2023-02-07T09:56:01;7.40;99.90
12268;DHT22;6196;48.398;11.736;2023-02-07T09:59:03;7.30;99.90
12268;DHT22;6196;48.398;11.736;2023-02-07T10:01:43;6.70;99.10
12268;DHT22;6196;48.398;11.736;2023-02-07T10:06:54;5.90;99.90
12268;DHT22;6196;48.398;11.736;2023-02-07T10:09:37;6.00;99.90
12268;DHT22;6196;48.398;11.736;2023-02-07T10:18:46;6.20;99.90
12268;DHT22;6196;48.398;11.736;2023-02-07T10:27:14;6.00;99.90
12268;DHT22;6196;48.398;11.736;2023-02-07T10:32:22;6.60;99.60
12268;DHT22;6196;48.398;11.736;2023-02-07T10:35:01;6.70;98.70
12268;DHT22;6196;48.398;11.736;2023-02-07T10:37:36;7.00;98.90
12268;DHT22;6196;48.398;11.736;2023-02-07T10:40:14;7.00;98.50
12268;DHT22;6196;48.398;11.736;2023-02-07T10:42:49;7.70;98.20
12268;DHT22;6196;48.398;11.736;2023-02-07T10:45:20;8.60;98.10
12268;DHT22;6196;48.398;11.736;2023-02-07T10:47:47;9.20;97.00
12268;DHT22;6196;48.398;11.736;2023-02-07T10:50:19;9.80;93.40
12268;DHT22;6196;48.398;11.736;2023-02-07T10:52:57;9.10;93.80
12268;DHT22;6196;48.398;11.736;2023-02-07T10:55:38;8.90;93.20
12268;DHT22;6196;48.398;11.736;2023-02-07T10:58:22;8.30;93.00
12268;DHT22;6196;48.398;11.736;2023-02-07T11:00:51;7.60;93.30
12268;DHT22;6196;48.398;11.736;2023-02-07T11:03:23;7.70;94.20
12268;DHT22;6196;48.398;11.736;2023-02-07T11:05:58;7.90;93.20
12268;DHT22;6196;48.398;11.736;2023-02-07T11:08:33;7.50;93.90
12268;DHT22;6196;48.398;11.736;2023-02-07T11:11:36;7.80;93.30
12268;DHT22;6196;48.398;11.736;2023-02-07T11:14:06;8.00;93.00
12268;DHT22;6196;48.398;11.736;2023-02-07T11:16:34;8.00;93.70
12268;DHT22;6196;48.398;11.736;2023-02-07T11:19:05;8.30;92.00
12268;DHT22;6196;48.398;11.736;2023-02-07T11:24:04;8.20;90.30
12268;DHT22;6196;48.398;11.736;2023-02-07T11:26:34;7.70;90.90
12268;DHT22;6196;48.398;11.736;2023-02-07T11:29:13;7.60;91.20
12268;DHT22;6196;48.398;11.736;2023-02-07T11:31:44;7.70;91.80
12268;DHT22;6196;48.398;11.736;2023-02-07T11:37:15;7.80;91.50
12268;DHT22;6196;48.398;11.736;2023-02-07T11:42:48;9.30;91.00
12268;DHT22;6196;48.398;11.736;2023-02-07T11:45:20;8.80;88.90
12268;DHT22;6196;48.398;11.736;2023-02-07T11:47:50;8.40;90.60
12268;DHT22;6196;48.398;11.736;2023-02-07T11:50:24;8.50;91.30
12268;DHT22;6196;48.398;11.736;2023-02-07T11:52:58;9.00;90.80
12268;DHT22;6196;48.398;11.736;2023-02-07T11:55:38;9.80;90.20
12268;DHT22;6196;48.398;11.736;2023-02-07T12:01:06;11.60;87.70
12268;DHT22;6196;48.398;11.736;2023-02-07T12:03:53;12.20;81.80
12268;DHT22;6196;48.398;11.736;2023-02-07T12:06:42;13.20;79.20
12268;DHT22;6196;48.398;11.736;2023-02-07T12:09:43;13.70;76.60
12268;DHT22;6196;48.398;11.736;2023-02-07T12:12:27;13.10;73.90
12268;DHT22;6196;48.398;11.736;2023-02-07T12:15:00;13.60;73.80
12268;DHT22;6196;48.398;11.736;2023-02-07T12:17:36;13.20;68.70
12268;DHT22;6196;48.398;11.736;2023-02-07T12:20:32;12.30;70.00
12268;DHT22;6196;48.398;11.736;2023-02-07T12:23:17;12.20;70.10
12268;DHT22;6196;48.398;11.736;2023-02-07T12:26:18;12.90;72.20
12268;DHT22;6196;48.398;11.736;2023-02-07T12:37:41;12.20;67.60
12268;DHT22;6196;48.398;11.736;2023-02-07T12:40:20;12.10;67.10
12268;DHT22;6196;48.398;11.736;2023-02-07T12:51:44;12.30;67.50
12268;DHT22;6196;48.398;11.736;2023-02-07T12:57:34;13.20;65.30
12268;DHT22;6196;48.398;11.736;2023-02-07T13:11:48;13.00;59.90
12268;DHT22;6196;48.398;11.736;2023-02-07T13:17:20;13.40;58.90
12268;DHT22;6196;48.398;11.736;2023-02-07T13:19:55;13.00;59.30
12268;DHT22;6196;48.398;11.736;2023-02-07T13:22:42;14.20;60.30
12268;DHT22;6196;48.398;11.736;2023-02-07T13:25:25;15.00;58.40
12268;DHT22;6196;48.398;11.736;2023-02-07T13:27:56;15.20;56.30
12268;DHT22;6196;48.398;11.736;2023-02-07T13:30:26;15.80;55.00
12268;DHT22;6196;48.398;11.736;2023-02-07T13:32:59;16.60;54.80
12268;DHT22;6196;48.398;11.736;2023-02-07T13:35:32;17.10;54.50
12268;DHT22;6196;48.398;11.736;2023-02-07T13:41:00;17.60;55.70
12268;DHT22;6196;48.398;11.736;2023-02-07T13:43:38;17.90;53.50
12268;DHT22;6196;48.398;11.736;2023-02-07T13:46:47;19.00;55.60
12268;DHT22;6196;48.398;11.736;2023-02-07T13:49:31;19.80;52.70
12268;DHT22;6196;48.398;11.736;2023-02-07T13:55:26;20.70;49.00
12268;DHT22;6196;48.398;11.736;2023-02-07T13:57:55;19.20;46.70
12268;DHT22;6196;48.398;11.736;2023-02-07T14:01:09;19.30;47.50
12268;DHT22;6196;48.398;11.736;2023-02-07T14:03:43;20.70;47.30
12268;DHT22;6196;48.398;11.736;2023-02-07T14:06:41;20.50;44.50
12268;DHT22;6196;48.398;11.736;2023-02-07T14:14:38;19.80;45.20
12268;DHT22;6196;48.398;11.736;2023-02-07T14:17:06;19.90;46.00
12268;DHT22;6196;48.398;11.736;2023-02-07T14:25:15;19.50;44.60
12268;DHT22;6196;48.398;11.736;2023-02-07T14:30:27;19.30;45.10
12268;DHT22;6196;48.398;11.736;2023-02-07T14:33:19;19.30;46.70
12268;DHT22;6196;48.398;11.736;2023-02-07T14:36:16;19.30;45.00
12268;DHT22;6196;48.398;11.736;2023-02-07T14:39:01;19.20;46.00
12268;DHT22;6196;48.398;11.736;2023-02-07T14:41:46;19.80;44.90
12268;DHT22;6196;48.398;11.736;2023-02-07T14:44:27;19.00;44.10
12268;DHT22;6196;48.398;11.736;2023-02-07T14:46:57;19.50;43.30
12268;DHT22;6196;48.398;11.736;2023-02-07T14:49:44;19.20;41.00
12268;DHT22;6196;48.398;11.736;2023-02-07T14:52:24;18.60;42.70
12268;DHT22;6196;48.398;11.736;2023-02-07T14:54:58;19.30;42.50
12268;DHT22;6196;48.398;11.736;2023-02-07T14:57:53;19.00;38.90
12268;DHT22;6196;48.398;11.736;2023-02-07T15:00:31;18.60;40.20
12268;DHT22;6196;48.398;11.736;2023-02-07T15:03:11;18.40;41.40
12268;DHT22;6196;48.398;11.736;2023-02-07T15:05:49;18.10;41.80
12268;DHT22;6196;48.398;11.736;2023-02-07T15:08:20;18.80;41.20
12268;DHT22;6196;48.398;11.736;2023-02-07T15:11:14;18.40;40.80
12268;DHT22;6196;48.398;11.736;2023-02-07T15:13:46;18.10;39.30
12268;DHT22;6196;48.398;11.736;2023-02-07T15:16:25;17.00;40.30
12268;DHT22;6196;48.398;11.736;2023-02-07T15:18:59;17.10;41.10
12268;DHT22;6196;48.398;11.736;2023-02-07T15:21:42;17.30;41.20
12268;DHT22;6196;48.398;11.736;2023-02-07T15:26:48;17.00;40.90
12268;DHT22;6196;48.398;11.736;2023-02-07T15:29:21;16.20;41.50
12268;DHT22;6196;48.398;11.736;2023-02-07T15:31:51;14.70;42.30
12268;DHT22;6196;48.398;11.736;2023-02-07T15:34:24;12.70;43.90
12268;DHT22;6196;48.398;11.736;2023-02-07T15:37:12;11.10;46.50
12268;DHT22;6196;48.398;11.736;2023-02-07T15:39:40;9.30;49.40
12268;DHT22;6196;48.398;11.736;2023-02-07T15:42:16;7.50;52.60
12268;DHT22;6196;48.398;11.736;2023-02-07T15:44:50;6.40;55.10
12268;DHT22;6196;48.398;11.736;2023-02-07T15:50:19;4.70;56.10
12268;DHT22;6196;48.398;11.736;2023-02-07T15:52:52;4.20;56.50
12268;DHT22;6196;48.398;11.736;2023-02-07T15:55:43;3.60;57.00
12268;DHT22;6196;48.398;11.736;2023-02-07T15:58:35;3.20;57.40
12268;DHT22;6196;48.398;11.736;2023-02-07T16:01:05;3.00;58.60
12268;DHT22;6196;48.398;11.736;2023-02-07T16:03:45;2.80;59.50
12268;DHT22;6196;48.398;11.736;2023-02-07T16:06:25;2.60;60.50
12268;DHT22;6196;48.398;11.736;2023-02-07T16:08:56;2.40;61.70
12268;DHT22;6196;48.398;11.736;2023-02-07T16:16:24;2.10;64.10
12268;DHT22;6196;48.398;11.736;2023-02-07T16:19:15;1.90;65.30
12268;DHT22;6196;48.398;11.736;2023-02-07T16:21:44;1.80;66.30
12268;DHT22;6196;48.398;11.736;2023-02-07T16:24:13;1.70;67.50
12268;DHT22;6196;48.398;11.736;2023-02-07T16:26:44;1.50;68.30
12268;DHT22;6196;48.398;11.736;2023-02-07T16:29:20;1.50;69.50
12268;DHT22;6196;48.398;11.736;2023-02-07T16:31:49;1.20;70.10
12268;DHT22;6196;48.398;11.736;2023-02-07T16:34:18;1.20;71.00
12268;DHT22;6196;48.398;11.736;2023-02-07T16:36:51;1.00;71.70
12268;DHT22;6196;48.398;11.736;2023-02-07T16:39:20;0.90;73.20
12268;DHT22;6196;48.398;11.736;2023-02-07T16:41:51;0.70;73.80
12268;DHT22;6196;48.398;11.736;2023-02-07T16:44:25;0.60;73.80
12268;DHT22;6196;48.398;11.736;2023-02-07T16:46:53;0.60;73.70
12268;DHT22;6196;48.398;11.736;2023-02-07T16:49:23;0.50;74.30
12268;DHT22;6196;48.398;11.736;2023-02-07T16:51:52;0.50;75.80
12268;DHT22;6196;48.398;11.736;2023-02-07T16:54:20;0.40;76.00
12268;DHT22;6196;48.398;11.736;2023-02-07T16:56:49;0.30;76.70
12268;DHT22;6196;48.398;11.736;2023-02-07T16:59:21;0.20;76.80
12268;DHT22;6196;48.398;11.736;2023-02-07T17:01:51;0.20;77.70
12268;DHT22;6196;48.398;11.736;2023-02-07T17:04:19;0.20;77.90
12268;DHT22;6196;48.398;11.736;2023-02-07T17:06:46;0.10;78.50
12268;DHT22;6196;48.398;11.736;2023-02-07T17:09:22;0.00;79.30
12268;DHT22;6196;48.398;11.736;2023-02-07T17:11:51;0.00;80.20
12268;DHT22;6196;48.398;11.736;2023-02-07T17:14:19;-0.10;80.40
12268;DHT22;6196;48.398;11.736;2023-02-07T17:16:46;-0.10;86.90
12268;DHT22;6196;48.398;11.736;2023-02-07T17:19:19;-0.30;88.60
12268;DHT22;6196;48.398;11.736;2023-02-07T17:21:50;-0.30;90.40
12268;DHT22;6196;48.398;11.736;2023-02-07T17:24:18;-0.40;91.60
12268;DHT22;6196;48.398;11.736;2023-02-07T17:26:48;-0.50;90.60
12268;DHT22;6196;48.398;11.736;2023-02-07T17:29:17;-0.50;90.50
12268;DHT22;6196;48.398;11.736;2023-02-07T17:31:45;-0.50;90.10
12268;DHT22;6196;48.398;11.736;2023-02-07T17:34:12;-0.40;90.30
12268;DHT22;6196;48.398;11.736;2023-02-07T17:36:45;-0.60;88.70
12268;DHT22;6196;48.398;11.736;2023-02-07T17:39:15;-0.60;88.60
12268;DHT22;6196;48.398;11.736;2023-02-07T17:41:43;-0.70;88.00
12268;DHT22;6196;48.398;11.736;2023-02-07T17:44:10;-0.70;87.80
12268;DHT22;6196;48.398;11.736;2023-02-07T17:46:37;-0.80;87.10
12268;DHT22;6196;48.398;11.736;2023-02-07T17:49:10;-0.80;86.20
12268;DHT22;6196;48.398;11.736;2023-02-07T17:51:40;-0.70;84.80
12268;DHT22;6196;48.398;11.736;2023-02-07T17:54:07;-0.80;86.30
12268;DHT22;6196;48.398;11.736;2023-02-07T17:56:34;-0.80;85.70
12268;DHT22;6196;48.398;11.736;2023-02-07T17:59:04;-0.90;85.60
12268;DHT22;6196;48.398;11.736;2023-02-07T18:01:32;-0.90;85.30
12268;DHT22;6196;48.398;11.736;2023-02-07T18:03:59;-0.90;84.80
12268;DHT22;6196;48.398;11.736;2023-02-07T18:06:28;-0.90;85.60
12268;DHT22;6196;48.398;11.736;2023-02-07T18:08:56;-0.90;85.40
12268;DHT22;6196;48.398;11.736;2023-02-07T18:11:25;-1.00;85.50
12268;DHT22;6196;48.398;11.736;2023-02-07T18:13:52;-1.00;85.90
12268;DHT22;6196;48.398;11.736;2023-02-07T18:16:22;-1.10;86.40